This is the latest recevied weather packets stored in our database for station/object DB0LS-15. If no packets are shown the sender has not sent any weather packets the latest 10 day(s).
| Time | Temp. | Humidity | Pressure | Rain* | Wind** | Luminosity | Snow |
|---|---|---|---|---|---|---|---|
| 1777451459 | 8.89° C | 38% | 1012.7 hPa | 0 mm | - | - | - |
| 1777450855 | 8.33° C | 39% | 1012.6 hPa | 0 mm | - | - | - |
| 1777450252 | 8.89° C | 40% | 1012.7 hPa | 0 mm | - | - | - |
| 1777449643 | 7.78° C | 41% | 1012.7 hPa | 0 mm | - | - | - |
| 1777449033 | 7.78° C | 41% | 1012.6 hPa | 0 mm | - | - | - |
| 1777448429 | 7.78° C | 40% | 1012.3 hPa | 0 mm | - | - | - |
| 1777447820 | 7.22° C | 41% | 1012.4 hPa | 0 mm | - | - | - |
| 1777447216 | 7.78° C | 44% | 1012.3 hPa | 0 mm | - | - | - |
| 1777446667 | 7.22° C | 45% | 1012.3 hPa | 0 mm | - | - | - |
| 1777446057 | 7.22° C | 46% | 1012.3 hPa | 0 mm | - | - | - |
| 1777444844 | 6.67° C | 51% | 1012.1 hPa | 0 mm | - | - | - |
| 1777444241 | 6.67° C | 53% | 1012 hPa | 0 mm | - | - | - |
| 1777443632 | 6.11° C | 54% | 1011.9 hPa | 0 mm | - | - | - |
| 1777443028 | 6.11° C | 56% | 1011.8 hPa | 0 mm | - | - | - |
| 1777442420 | 6.11° C | 56% | 1011.7 hPa | 0 mm | - | - | - |
| 1777441816 | 5.56° C | 59% | 1011.5 hPa | 0 mm | - | - | - |
| 1777441268 | 5.56° C | 59% | 1011.5 hPa | 0 mm | - | - | - |
| 1777440664 | 5° C | 62% | 1011.3 hPa | 0 mm | - | - | - |
| 1777440055 | 5° C | 63% | 1011.1 hPa | 0 mm | - | - | - |
| 1777439452 | 4.44° C | 64% | 1010.9 hPa | 0 mm | - | - | - |
| 1777438842 | 4.44° C | 65% | 1010.9 hPa | 0 mm | - | - | - |
| 1777438233 | 3.89° C | 66% | 1010.7 hPa | 0 mm | - | - | - |
| 1777437019 | 3.33° C | 67% | 1010.7 hPa | 0 mm | - | - | - |
| 1777435867 | 3.33° C | 68% | 1010.6 hPa | 0 mm | - | - | - |
| 1777428641 | 4.44° C | 63% | 1009.6 hPa | 0 mm | - | - | - |
* Rain latest hour (hover to see other rain measurements)
** Current wind speed in m/s (hover to see current wind gust speed)